Hamnavoe — VSTY7 — position and weather

sailwx.info

Track history (hours):
 
Tides and Currents Weather Stations Pressure Air Temp Water Temp Dewpoint Dewpoint Depression Visibility Wind Speed Wind Dir Waves Ship Positions

Hamnavoe

Operator: NorthLink Orkey & Shetland Ferries Ltd

Last reported at 2014-Sep-23 05:33 UTC. Time now 2014-Sep-23 06:25 UTC.
Position N 58°57' W 003°18'.

Length 112 m; draft 4.4 m.

Type: Ship. MMSI: 235449000.

Date/timePositionNaut miles runAvg speedWind from/ knotsBaromVisibWave heightAir tempDewpointWater temp
2014-Sep-23 05:33N 58°57' W 003°18'0 0.5
2014-Sep-23 04:32N 58°58' W 003°18'0 0.0
2014-Sep-23 03:32N 58°58' W 003°18'0 0.0
2014-Sep-23 02:32N 58°58' W 003°18'0 0.0
2014-Sep-22 22:32N 58°58' W 003°18'0 0.0
2014-Sep-22 21:26N 58°58' W 003°18'0 0.0
2014-Sep-22 20:32N 58°58' W 003°18'0 0.0
2014-Sep-22 19:33N 58°58' W 003°18'1514.6
2014-Sep-22 18:33N 58°44' W 003°29'8 5.7
2014-Sep-22 17:10N 58°37' W 003°32'1016.9
2014-Sep-22 16:34N 58°47' W 003°29'1312.6
2014-Sep-22 15:33N 58°58' W 003°18'0 0.0
2014-Sep-22 14:33N 58°58' W 003°18'0 0.3
2014-Sep-22 13:33N 58°57' W 003°18'1616.0
2014-Sep-22 12:33N 58°43' W 003°30'3 2.2
2014-Sep-22 11:09N 58°40' W 003°31'1119.0
2014-Sep-22 10:34N 58°51' W 003°28'9 8.7
2014-Sep-22 09:32N 58°58' W 003°18'8 8.3
2014-Sep-22 08:33N 58°52' W 003°28'7 3.6
2014-Sep-22 06:33N 58°45' W 003°30'1514.5
2014-Sep-22 05:33N 58°58' W 003°18'0 0.0
2014-Sep-22 02:19N 58°58' W 003°18'0 0.0
2014-Sep-22 01:19N 58°58' W 003°18'0 0.0
2014-Sep-21 19:29N 58°58' W 003°18'1212.8
2014-Sep-21 18:33N 58°48' W 003°29'0 0.1
2014-Sep-21 16:34N 58°47' W 003°29'1211.7
2014-Sep-21 15:32N 58°58' W 003°18'0 0.0
2014-Sep-21 14:33N 58°58' W 003°18'0 0.0
2014-Sep-21 13:33N 58°58' W 003°18'0 0.0
2014-Sep-21 12:33N 58°58' W 003°18'1111.2
2014-Sep-21 11:33N 58°48' W 003°29'10 4.2
2014-Sep-21 09:17N 58°39' W 003°31'1317.8
2014-Sep-21 08:33N 58°52' W 003°28'8 2.0
2014-Sep-21 04:28N 58°58' W 003°18'0 0.0
2014-Sep-21 02:28N 58°58' W 003°18'0 0.0
2014-Sep-20 21:28N 58°58' W 003°18'0 0.0
2014-Sep-20 20:28N 58°58' W 003°18'0 0.0
2014-Sep-20 19:32N 58°58' W 003°18'1111.4
2014-Sep-20 18:33N 58°48' W 003°29'1210.4
2014-Sep-20 17:25N 58°37' W 003°32'1112.1
2014-Sep-20 16:33N 58°47' W 003°29'12 8.9
2014-Sep-20 15:10N 58°58' W 003°18'0 0.0
2014-Sep-20 14:28N 58°58' W 003°18'0 0.0
2014-Sep-20 13:28N 58°58' W 003°18'0 0.0
2014-Sep-20 12:29N 58°58' W 003°18'1213.5
2014-Sep-20 11:33N 58°47' W 003°30'7 2.9
2014-Sep-20 09:11N 58°40' W 003°31'1219.4
2014-Sep-20 08:33N 58°52' W 003°28'8 6.9
2014-Sep-20 07:26N 58°58' W 003°18'0 0.0
2014-Sep-20 06:32N 58°58' W 003°18'0 0.0
2014-Sep-20 05:32N 58°58' W 003°18'0 0.0
2014-Sep-20 04:32N 58°58' W 003°18'0 0.0
2014-Sep-20 03:32N 58°58' W 003°18'0 0.0
2014-Sep-20 02:32N 58°58' W 003°18'0 0.0
2014-Sep-20 01:32N 58°58' W 003°18'0 0.0
2014-Sep-20 00:26N 58°58' W 003°18'0 0.0
2014-Sep-19 23:32N 58°58' W 003°18'0 0.0
2014-Sep-19 22:26N 58°58' W 003°18'0 0.0
2014-Sep-19 21:32N 58°58' W 003°18'0 0.0
2014-Sep-19 20:32N 58°58' W 003°18'0 0.0
2014-Sep-19 19:33N 58°58' W 003°18'1111.4
2014-Sep-19 18:33N 58°48' W 003°29'10 6.9
2014-Sep-19 17:05N 58°38' W 003°31'1018.9
2014-Sep-19 16:33N 58°48' W 003°29'12 8.5
2014-Sep-19 15:11N 58°58' W 003°18'0 0.0
2014-Sep-19 14:17N 58°58' W 003°18'0 0.0
2014-Sep-19 11:05N 58°58' W 003°18'0 0.0
2014-Sep-19 10:29N 58°58' W 003°18'0 0.0
2014-Sep-19 09:21N 58°58' W 003°18'910.9
2014-Sep-19 08:33N 58°51' W 003°28'7 3.6
2014-Sep-19 06:33N 58°44' W 003°30'1514.9
2014-Sep-19 05:33N 58°58' W 003°18'0 0.1
2014-Sep-19 03:29N 58°58' W 003°18'0 0.0
2014-Sep-19 02:11N 58°58' W 003°18'0 0.0
2014-Sep-19 01:29N 58°58' W 003°18'0 0.0
2014-Sep-19 00:29N 58°58' W 003°18'0 0.0
2014-Sep-18 23:23N 58°58' W 003°18'0 0.0
2014-Sep-18 22:23N 58°58' W 003°18'0 0.0
2014-Sep-18 21:17N 58°58' W 003°18'0 0.0
2014-Sep-18 20:17N 58°58' W 003°18'0 0.0
2014-Sep-18 19:32N 58°58' W 003°18'1111.5
2014-Sep-18 18:33N 58°48' W 003°29'1 0.3
2014-Sep-18 16:34N 58°49' W 003°29'11 9.7
2014-Sep-18 15:26N 58°58' W 003°18'0 0.0
2014-Sep-18 14:33N 58°58' W 003°18'0 0.0
2014-Sep-18 13:33N 58°58' W 003°18'1515.3
2014-Sep-18 12:33N 58°44' W 003°30'7 7.3
2014-Sep-18 11:33N 58°37' W 003°32'1716.6
2014-Sep-18 10:33N 58°53' W 003°28'7 7.0
2014-Sep-18 09:33N 58°58' W 003°18'7 7.1
2014-Sep-18 08:33N 58°53' W 003°28'1616.4
2014-Sep-18 07:33N 58°37' W 003°32'7 7.1
2014-Sep-18 06:33N 58°44' W 003°30'1515.4
2014-Sep-18 05:33N 58°58' W 003°18'0 0.2
2014-Sep-18 04:33N 58°58' W 003°18'0 0.0
2014-Sep-18 03:33N 58°58' W 003°18'0 0.0
2014-Sep-18 02:33N 58°58' W 003°18'0 0.0
2014-Sep-18 01:33N 58°58' W 003°18'0 0.0
2014-Sep-18 00:33N 58°58' W 003°18'0 0.0
2014-Sep-17 23:33N 58°58' W 003°18'0 0.0
2014-Sep-17 22:33N 58°58' W 003°18'0 0.0
2014-Sep-17 21:33N 58°58' W 003°18'0 0.0
2014-Sep-17 20:33N 58°58' W 003°18'0 0.0
2014-Sep-17 19:33N 58°58' W 003°18'1212.0
2014-Sep-17 18:33N 58°47' W 003°28'1110.7
2014-Sep-17 17:33N 58°37' W 003°32'1010.6
2014-Sep-17 16:33N 58°47' W 003°29'1212.2
2014-Sep-17 15:33N 58°58' W 003°18'0 0.0
2014-Sep-17 14:25N 58°58' W 003°18'0 0.0
2014-Sep-17 13:31N 58°58' W 003°18'0 0.0
2014-Sep-17 12:31N 58°58' W 003°18'0 0.0
2014-Sep-17 11:31N 58°58' W 003°18'0 0.0
2014-Sep-17 10:31N 58°58' W 003°18'0 0.0
2014-Sep-17 09:31N 58°58' W 003°18'7 7.6
2014-Sep-17 08:33N 58°52' W 003°28'1616.0
2014-Sep-17 07:33N 58°37' W 003°32'6 6.5
2014-Sep-17 06:33N 58°43' W 003°30'1615.9
2014-Sep-17 05:34N 58°58' W 003°18'0 0.3
2014-Sep-17 04:32N 58°58' W 003°18'0 0.0
2014-Sep-17 03:32N 58°58' W 003°18'0 0.0
2014-Sep-17 02:32N 58°58' W 003°18'0 0.0
2014-Sep-17 01:32N 58°58' W 003°18'0 0.0
2014-Sep-17 00:32N 58°58' W 003°18'0 0.0
2014-Sep-16 23:32N 58°58' W 003°18'0 0.0
2014-Sep-16 22:32N 58°58' W 003°18'0 0.0
2014-Sep-16 19:21N 58°58' W 003°18'1013.0
2014-Sep-16 18:33N 58°49' W 003°28'3 1.3
2014-Sep-16 16:33N 58°46' W 003°29'1311.4
2014-Sep-16 15:27N 58°58' W 003°18'0 0.0
2014-Sep-16 14:29N 58°58' W 003°18'0 0.0
2014-Sep-16 13:33N 58°58' W 003°18'0 0.0
2014-Sep-16 12:33N 58°58' W 003°18'0 0.0
2014-Sep-16 11:33N 58°58' W 003°18'0 0.0
2014-Sep-16 10:33N 58°58' W 003°18'0 0.0
2014-Sep-16 09:33N 58°58' W 003°18'8 7.7
2014-Sep-16 08:33N 58°52' W 003°28'9 4.6
2014-Sep-16 06:33N 58°43' W 003°30'1616.0
2014-Sep-16 05:34N 58°58' W 003°18'0 0.3
2014-Sep-16 04:28N 58°58' W 003°18'0 0.0
2014-Sep-16 03:28N 58°58' W 003°18'0 0.0
2014-Sep-16 02:28N 58°58' W 003°18'0 0.0
2014-Sep-16 01:28N 58°58' W 003°18'0 0.0
2014-Sep-16 00:28N 58°58' W 003°18'0 0.0
2014-Sep-15 23:28N 58°58' W 003°18'0 0.0
2014-Sep-15 22:28N 58°58' W 003°18'0 0.0
2014-Sep-15 21:22N 58°58' W 003°18'0 0.0
2014-Sep-15 20:28N 58°58' W 003°18'0 0.0
2014-Sep-15 19:33N 58°58' W 003°18'1211.8
2014-Sep-15 18:33N 58°48' W 003°30'1 0.4
2014-Sep-15 16:33N 58°47' W 003°29'12 2.0
2014-Sep-15 10:19N 58°58' W 003°18'0 0.0
2014-Sep-15 09:22N 58°58' W 003°18'7 8.9
2014-Sep-15 08:33N 58°53' W 003°28'9 4.6
2014-Sep-15 06:34N 58°44' W 003°30'1515.3
2014-Sep-15 05:33N 58°58' W 003°18'0 0.2
2014-Sep-15 04:22N 58°58' W 003°18'0 0.0
2014-Sep-15 03:28N 58°58' W 003°18'0 0.0
2014-Sep-15 01:28N 58°58' W 003°18'0 0.0
2014-Sep-14 23:22N 58°58' W 003°18'0 0.0
2014-Sep-14 22:16N 58°58' W 003°18'0 0.0
2014-Sep-14 21:10N 58°58' W 003°18'0 0.0
2014-Sep-14 20:10N 58°58' W 003°18'0 0.0
2014-Sep-14 19:29N 58°58' W 003°18'1112.0
2014-Sep-14 18:33N 58°48' W 003°29'2 1.0
2014-Sep-14 16:33N 58°49' W 003°33'12 5.8
2014-Sep-14 14:30N 58°58' W 003°18'0 0.0
2014-Sep-14 13:18N 58°58' W 003°18'0 0.0
2014-Sep-14 12:31N 58°58' W 003°18'1111.7
2014-Sep-14 11:33N 58°48' W 003°29'9 4.1
2014-Sep-14 09:16N 58°39' W 003°31'1318.6
2014-Sep-14 08:33N 58°52' W 003°28'8 7.1
2014-Sep-14 07:27N 58°58' W 003°18'0 0.0
2014-Sep-14 06:33N 58°58' W 003°18'0 0.0
2014-Sep-14 05:33N 58°58' W 003°18'0 0.0
2014-Sep-14 04:33N 58°58' W 003°18'0 0.0
2014-Sep-14 03:33N 58°58' W 003°18'0 0.0
2014-Sep-14 02:33N 58°58' W 003°18'0 0.0
2014-Sep-14 01:33N 58°58' W 003°18'0 0.0
2014-Sep-13 21:33N 58°58' W 003°18'0 0.0
2014-Sep-13 20:33N 58°58' W 003°18'0 0.0
2014-Sep-13 19:33N 58°58' W 003°18'1110.6
2014-Sep-13 18:33N 58°49' W 003°28'0 0.2
2014-Sep-13 16:33N 58°49' W 003°29'11 4.6
2014-Sep-13 14:14N 58°58' W 003°18'0 0.0
2014-Sep-13 13:26N 58°58' W 003°18'0 0.0
2014-Sep-13 12:32N 58°58' W 003°18'1111.5
2014-Sep-13 11:33N 58°48' W 003°29'8 3.6
2014-Sep-13 09:16N 58°40' W 003°31'1419.2
2014-Sep-13 08:33N 58°53' W 003°27'  
Track history (hours):
 
Tides and Currents Weather Stations Pressure Air Temp Water Temp Dewpoint Dewpoint Depression Visibility Wind Speed Wind Dir Waves Ship Positions

Hamnavoe

Operator: NorthLink Orkey & Shetland Ferries Ltd

Last reported at 2014-Sep-23 05:33 UTC. Time now 2014-Sep-23 06:25 UTC.
Position N 58°57' W 003°18'.

Length 112 m; draft 4.4 m.

Type: Ship. MMSI: 235449000.

Date/timePositionNaut miles runAvg speedWind from/ knotsBaromVisibWave heightAir tempDewpointWater temp
2014-Sep-23 05:33N 58°57' W 003°18'0 0.5
2014-Sep-23 04:32N 58°58' W 003°18'0 0.0
2014-Sep-23 03:32N 58°58' W 003°18'0 0.0
2014-Sep-23 02:32N 58°58' W 003°18'0 0.0
2014-Sep-22 22:32N 58°58' W 003°18'0 0.0
2014-Sep-22 21:26N 58°58' W 003°18'0 0.0
2014-Sep-22 20:32N 58°58' W 003°18'0 0.0
2014-Sep-22 19:33N 58°58' W 003°18'1514.6
2014-Sep-22 18:33N 58°44' W 003°29'8 5.7
2014-Sep-22 17:10N 58°37' W 003°32'1016.9
2014-Sep-22 16:34N 58°47' W 003°29'1312.6
2014-Sep-22 15:33N 58°58' W 003°18'0 0.0
2014-Sep-22 14:33N 58°58' W 003°18'0 0.3
2014-Sep-22 13:33N 58°57' W 003°18'1616.0
2014-Sep-22 12:33N 58°43' W 003°30'3 2.2
2014-Sep-22 11:09N 58°40' W 003°31'1119.0
2014-Sep-22 10:34N 58°51' W 003°28'9 8.7
2014-Sep-22 09:32N 58°58' W 003°18'8 8.3
2014-Sep-22 08:33N 58°52' W 003°28'7 3.6
2014-Sep-22 06:33N 58°45' W 003°30'1514.5
2014-Sep-22 05:33N 58°58' W 003°18'0 0.0
2014-Sep-22 02:19N 58°58' W 003°18'0 0.0
2014-Sep-22 01:19N 58°58' W 003°18'0 0.0
2014-Sep-21 19:29N 58°58' W 003°18'1212.8
2014-Sep-21 18:33N 58°48' W 003°29'0 0.1
2014-Sep-21 16:34N 58°47' W 003°29'1211.7
2014-Sep-21 15:32N 58°58' W 003°18'0 0.0
2014-Sep-21 14:33N 58°58' W 003°18'0 0.0
2014-Sep-21 13:33N 58°58' W 003°18'0 0.0
2014-Sep-21 12:33N 58°58' W 003°18'1111.2
2014-Sep-21 11:33N 58°48' W 003°29'10 4.2
2014-Sep-21 09:17N 58°39' W 003°31'1317.8
2014-Sep-21 08:33N 58°52' W 003°28'8 2.0
2014-Sep-21 04:28N 58°58' W 003°18'0 0.0
2014-Sep-21 02:28N 58°58' W 003°18'0 0.0
2014-Sep-20 21:28N 58°58' W 003°18'0 0.0
2014-Sep-20 20:28N 58°58' W 003°18'0 0.0
2014-Sep-20 19:32N 58°58' W 003°18'1111.4
2014-Sep-20 18:33N 58°48' W 003°29'1210.4
2014-Sep-20 17:25N 58°37' W 003°32'1112.1
2014-Sep-20 16:33N 58°47' W 003°29'12 8.9
2014-Sep-20 15:10N 58°58' W 003°18'0 0.0
2014-Sep-20 14:28N 58°58' W 003°18'0 0.0
2014-Sep-20 13:28N 58°58' W 003°18'0 0.0
2014-Sep-20 12:29N 58°58' W 003°18'1213.5
2014-Sep-20 11:33N 58°47' W 003°30'7 2.9
2014-Sep-20 09:11N 58°40' W 003°31'1219.4
2014-Sep-20 08:33N 58°52' W 003°28'8 6.9
2014-Sep-20 07:26N 58°58' W 003°18'0 0.0
2014-Sep-20 06:32N 58°58' W 003°18'0 0.0
2014-Sep-20 05:32N 58°58' W 003°18'0 0.0
2014-Sep-20 04:32N 58°58' W 003°18'0 0.0
2014-Sep-20 03:32N 58°58' W 003°18'0 0.0
2014-Sep-20 02:32N 58°58' W 003°18'0 0.0
2014-Sep-20 01:32N 58°58' W 003°18'0 0.0
2014-Sep-20 00:26N 58°58' W 003°18'0 0.0
2014-Sep-19 23:32N 58°58' W 003°18'0 0.0
2014-Sep-19 22:26N 58°58' W 003°18'0 0.0
2014-Sep-19 21:32N 58°58' W 003°18'0 0.0
2014-Sep-19 20:32N 58°58' W 003°18'0 0.0
2014-Sep-19 19:33N 58°58' W 003°18'1111.4
2014-Sep-19 18:33N 58°48' W 003°29'10 6.9
2014-Sep-19 17:05N 58°38' W 003°31'1018.9
2014-Sep-19 16:33N 58°48' W 003°29'12 8.5
2014-Sep-19 15:11N 58°58' W 003°18'0 0.0
2014-Sep-19 14:17N 58°58' W 003°18'0 0.0
2014-Sep-19 11:05N 58°58' W 003°18'0 0.0
2014-Sep-19 10:29N 58°58' W 003°18'0 0.0
2014-Sep-19 09:21N 58°58' W 003°18'910.9
2014-Sep-19 08:33N 58°51' W 003°28'7 3.6
2014-Sep-19 06:33N 58°44' W 003°30'1514.9
2014-Sep-19 05:33N 58°58' W 003°18'0 0.1
2014-Sep-19 03:29N 58°58' W 003°18'0 0.0
2014-Sep-19 02:11N 58°58' W 003°18'0 0.0
2014-Sep-19 01:29N 58°58' W 003°18'0 0.0
2014-Sep-19 00:29N 58°58' W 003°18'0 0.0
2014-Sep-18 23:23N 58°58' W 003°18'0 0.0
2014-Sep-18 22:23N 58°58' W 003°18'0 0.0
2014-Sep-18 21:17N 58°58' W 003°18'0 0.0
2014-Sep-18 20:17N 58°58' W 003°18'0 0.0
2014-Sep-18 19:32N 58°58' W 003°18'1111.5
2014-Sep-18 18:33N 58°48' W 003°29'1 0.3
2014-Sep-18 16:34N 58°49' W 003°29'11 9.7
2014-Sep-18 15:26N 58°58' W 003°18'0 0.0
2014-Sep-18 14:33N 58°58' W 003°18'0 0.0
2014-Sep-18 13:33N 58°58' W 003°18'1515.3
2014-Sep-18 12:33N 58°44' W 003°30'7 7.3
2014-Sep-18 11:33N 58°37' W 003°32'1716.6
2014-Sep-18 10:33N 58°53' W 003°28'7 7.0
2014-Sep-18 09:33N 58°58' W 003°18'7 7.1
2014-Sep-18 08:33N 58°53' W 003°28'1616.4
2014-Sep-18 07:33N 58°37' W 003°32'7 7.1
2014-Sep-18 06:33N 58°44' W 003°30'1515.4
2014-Sep-18 05:33N 58°58' W 003°18'0 0.2
2014-Sep-18 04:33N 58°58' W 003°18'0 0.0
2014-Sep-18 03:33N 58°58' W 003°18'0 0.0
2014-Sep-18 02:33N 58°58' W 003°18'0 0.0
2014-Sep-18 01:33N 58°58' W 003°18'0 0.0
2014-Sep-18 00:33N 58°58' W 003°18'0 0.0
2014-Sep-17 23:33N 58°58' W 003°18'0 0.0
2014-Sep-17 22:33N 58°58' W 003°18'0 0.0
2014-Sep-17 21:33N 58°58' W 003°18'0 0.0
2014-Sep-17 20:33N 58°58' W 003°18'0 0.0
2014-Sep-17 19:33N 58°58' W 003°18'1212.0
2014-Sep-17 18:33N 58°47' W 003°28'1110.7
2014-Sep-17 17:33N 58°37' W 003°32'1010.6
2014-Sep-17 16:33N 58°47' W 003°29'1212.2
2014-Sep-17 15:33N 58°58' W 003°18'0 0.0
2014-Sep-17 14:25N 58°58' W 003°18'0 0.0
2014-Sep-17 13:31N 58°58' W 003°18'0 0.0
2014-Sep-17 12:31N 58°58' W 003°18'0 0.0
2014-Sep-17 11:31N 58°58' W 003°18'0 0.0
2014-Sep-17 10:31N 58°58' W 003°18'0 0.0
2014-Sep-17 09:31N 58°58' W 003°18'7 7.6
2014-Sep-17 08:33N 58°52' W 003°28'1616.0
2014-Sep-17 07:33N 58°37' W 003°32'6 6.5
2014-Sep-17 06:33N 58°43' W 003°30'1615.9
2014-Sep-17 05:34N 58°58' W 003°18'0 0.3
2014-Sep-17 04:32N 58°58' W 003°18'0 0.0
2014-Sep-17 03:32N 58°58' W 003°18'0 0.0
2014-Sep-17 02:32N 58°58' W 003°18'0 0.0
2014-Sep-17 01:32N 58°58' W 003°18'0 0.0
2014-Sep-17 00:32N 58°58' W 003°18'0 0.0
2014-Sep-16 23:32N 58°58' W 003°18'0 0.0
2014-Sep-16 22:32N 58°58' W 003°18'0 0.0
2014-Sep-16 19:21N 58°58' W 003°18'1013.0
2014-Sep-16 18:33N 58°49' W 003°28'3 1.3
2014-Sep-16 16:33N 58°46' W 003°29'1311.4
2014-Sep-16 15:27N 58°58' W 003°18'0 0.0
2014-Sep-16 14:29N 58°58' W 003°18'0 0.0
2014-Sep-16 13:33N 58°58' W 003°18'0 0.0
2014-Sep-16 12:33N 58°58' W 003°18'0 0.0
2014-Sep-16 11:33N 58°58' W 003°18'0 0.0
2014-Sep-16 10:33N 58°58' W 003°18'0 0.0
2014-Sep-16 09:33N 58°58' W 003°18'8 7.7
2014-Sep-16 08:33N 58°52' W 003°28'9 4.6
2014-Sep-16 06:33N 58°43' W 003°30'1616.0
2014-Sep-16 05:34N 58°58' W 003°18'0 0.3
2014-Sep-16 04:28N 58°58' W 003°18'0 0.0
2014-Sep-16 03:28N 58°58' W 003°18'0 0.0
2014-Sep-16 02:28N 58°58' W 003°18'0 0.0
2014-Sep-16 01:28N 58°58' W 003°18'0 0.0
2014-Sep-16 00:28N 58°58' W 003°18'0 0.0
2014-Sep-15 23:28N 58°58' W 003°18'0 0.0
2014-Sep-15 22:28N 58°58' W 003°18'0 0.0
2014-Sep-15 21:22N 58°58' W 003°18'0 0.0
2014-Sep-15 20:28N 58°58' W 003°18'0 0.0
2014-Sep-15 19:33N 58°58' W 003°18'1211.8
2014-Sep-15 18:33N 58°48' W 003°30'1 0.4
2014-Sep-15 16:33N 58°47' W 003°29'12 2.0
2014-Sep-15 10:19N 58°58' W 003°18'0 0.0
2014-Sep-15 09:22N 58°58' W 003°18'7 8.9
2014-Sep-15 08:33N 58°53' W 003°28'9 4.6
2014-Sep-15 06:34N 58°44' W 003°30'1515.3
2014-Sep-15 05:33N 58°58' W 003°18'0 0.2
2014-Sep-15 04:22N 58°58' W 003°18'0 0.0
2014-Sep-15 03:28N 58°58' W 003°18'0 0.0
2014-Sep-15 01:28N 58°58' W 003°18'0 0.0
2014-Sep-14 23:22N 58°58' W 003°18'0 0.0
2014-Sep-14 22:16N 58°58' W 003°18'0 0.0
2014-Sep-14 21:10N 58°58' W 003°18'0 0.0
2014-Sep-14 20:10N 58°58' W 003°18'0 0.0
2014-Sep-14 19:29N 58°58' W 003°18'1112.0
2014-Sep-14 18:33N 58°48' W 003°29'2 1.0
2014-Sep-14 16:33N 58°49' W 003°33'12 5.8
2014-Sep-14 14:30N 58°58' W 003°18'0 0.0
2014-Sep-14 13:18N 58°58' W 003°18'0 0.0
2014-Sep-14 12:31N 58°58' W 003°18'1111.7
2014-Sep-14 11:33N 58°48' W 003°29'9 4.1
2014-Sep-14 09:16N 58°39' W 003°31'1318.6
2014-Sep-14 08:33N 58°52' W 003°28'8 7.1
2014-Sep-14 07:27N 58°58' W 003°18'0 0.0
2014-Sep-14 06:33N 58°58' W 003°18'0 0.0
2014-Sep-14 05:33N 58°58' W 003°18'0 0.0
2014-Sep-14 04:33N 58°58' W 003°18'0 0.0
2014-Sep-14 03:33N 58°58' W 003°18'0 0.0
2014-Sep-14 02:33N 58°58' W 003°18'0 0.0
2014-Sep-14 01:33N 58°58' W 003°18'0 0.0
2014-Sep-13 21:33N 58°58' W 003°18'0 0.0
2014-Sep-13 20:33N 58°58' W 003°18'0 0.0
2014-Sep-13 19:33N 58°58' W 003°18'1110.6
2014-Sep-13 18:33N 58°49' W 003°28'0 0.2
2014-Sep-13 16:33N 58°49' W 003°29'11 4.6
2014-Sep-13 14:14N 58°58' W 003°18'0 0.0
2014-Sep-13 13:26N 58°58' W 003°18'0 0.0
2014-Sep-13 12:32N 58°58' W 003°18'1111.5
2014-Sep-13 11:33N 58°48' W 003°29'8 3.6
2014-Sep-13 09:16N 58°40' W 003°31'1419.2
2014-Sep-13 08:33N 58°53' W 003°27'  

Dump ship's entire track history